Time;durP1;ratioP1;P1;durP2;ratioP2;P2;SDS_P1;SDS_P2;PMS_P1;PMS_P2;Temp;Humidity;BMP_temperature;BMP_pressure;BME280_temperature;BME280_humidity;BME280_pressure;Samples;Min_cycle;Max_cycle;Signal;HPM_P1;HPM_P2
2021/12/16 00:09:29;;;;;;;39.72;14.00;;;;;;;1.88;100.00;97039.06;5004755;28;20041;-77
2021/12/16 00:29:00;;;;;;;42.05;13.63;;;;;;;1.74;100.00;97029.47;5002215;28;20093;-77
2021/12/16 00:31:32;;;;;;;48.00;14.65;;;;;;;1.71;100.00;97016.81;4988904;28;20046;-77
2021/12/16 00:34:02;;;;;;;45.30;13.45;;;;;;;1.70;100.00;97020.41;5005732;28;20484;-77
2021/12/16 00:36:37;;;;;;;56.60;15.20;;;;;;;1.70;100.00;97015.22;5004844;28;20531;-77
2021/12/16 00:39:12;;;;;;;48.67;14.48;;;;;;;1.79;100.00;97019.34;5004429;28;20070;-77
2021/12/16 00:41:40;;;;;;;50.38;14.80;;;;;;;1.74;100.00;97011.28;4974033;28;20042;-77
2021/12/16 00:44:21;;;;;;;50.70;14.63;;;;;;;1.66;100.00;97013.94;4989492;28;20406;-77
2021/12/16 00:49:48;;;;;;;48.60;14.77;;;;;;;1.62;100.00;97017.88;4945291;28;20595;-77
2021/12/16 00:55:24;;;;;;;51.75;14.88;;;;;;;1.66;100.00;97024.34;4992999;28;20050;-77
2021/12/16 00:57:52;;;;;;;52.42;14.23;;;;;;;1.61;100.00;97021.44;4995170;28;20034;-77
2021/12/16 01:00:18;;;;;;;48.97;14.20;;;;;;;1.73;100.00;97025.25;5011253;28;20064;-77
2021/12/16 01:06:23;;;;;;;42.20;12.60;;;;;;;1.77;100.00;97023.91;4924802;29;20048;-77
2021/12/16 01:57:32;;;;;;;43.65;13.32;;;;;;;1.72;100.00;97040.03;4911034;29;20055;-78
2021/12/16 02:00:04;;;;;;;44.05;13.35;;;;;;;1.76;100.00;97030.09;4911278;29;20510;-77
2021/12/16 02:02:40;;;;;;;39.00;13.25;;;;;;;1.76;100.00;97030.09;4967324;28;20089;-77
2021/12/16 02:05:31;;;;;;;42.05;12.73;;;;;;;1.76;100.00;97024.88;4993325;28;20081;-77
2021/12/16 02:10:37;;;;;;;35.03;12.27;;;;;;;1.86;100.00;97022.84;5005223;28;20046;-77
2021/12/16 02:13:42;;;;;;;32.05;11.57;;;;;;;2.05;100.00;97012.94;5004780;28;20046;-77
2021/12/16 02:32:47;;;;;;;50.97;13.43;;;;;;;1.53;100.00;97030.91;5009521;28;20033;-76
2021/12/16 02:37:35;;;;;;;46.03;12.93;;;;;;;1.56;100.00;97035.75;5005671;28;20073;-76
2021/12/16 02:40:05;;;;;;;50.35;13.40;;;;;;;1.55;100.00;97034.16;4996607;28;20042;-77
2021/12/16 02:42:39;;;;;;;48.10;12.95;;;;;;;1.64;100.00;97031.47;4990445;28;20077;-76
2021/12/16 02:50:28;;;;;;;40.85;11.35;;;;;;;1.60;100.00;97025.84;4989961;28;20054;-77
2021/12/16 02:52:54;;;;;;;40.25;11.90;;;;;;;1.59;100.00;97019.03;5000576;28;20038;-77
2021/12/16 02:55:21;;;;;;;37.72;11.43;;;;;;;1.64;100.00;97018.50;4987693;28;20519;-77
2021/12/16 02:57:55;;;;;;;39.00;11.38;;;;;;;1.61;100.00;97016.25;5000504;28;20041;-77
2021/12/16 03:00:21;;;;;;;36.55;11.65;;;;;;;1.61;100.00;97011.88;5002665;28;20044;-77
2021/12/16 03:02:50;;;;;;;36.80;12.05;;;;;;;1.61;100.00;97011.88;4990338;28;20046;-77
2021/12/16 03:05:18;;;;;;;32.88;11.52;;;;;;;1.60;100.00;97014.66;4984144;28;20064;-77
2021/12/16 03:07:44;;;;;;;33.67;11.20;;;;;;;1.55;100.00;97013.41;4989531;28;20142;-77
2021/12/16 03:13:06;;;;;;;36.70;11.00;;;;;;;1.56;100.00;97029.75;4994006;28;20038;-77
2021/12/16 03:21:04;;;;;;;40.28;12.30;;;;;;;1.60;100.00;97038.03;5002290;28;20593;-77
2021/12/16 03:26:43;;;;;;;43.65;12.45;;;;;;;1.64;100.00;97049.63;5008310;28;20053;-77
2021/12/16 03:29:38;;;;;;;;;;;;;;;1.60;100.00;97040.63;4993113;28;20046;-77
2021/12/16 03:32:11;;;;;;;;;;;;;;;1.56;100.00;97046.13;4995685;28;19929;-77
2021/12/16 03:37:22;;;;;;;34.38;11.27;;;;;;;1.48;100.00;97038.44;5005838;28;19925;-77
2021/12/16 03:40:08;;;;;;;38.10;11.80;;;;;;;1.51;100.00;97045.84;4990139;28;20041;-76
2021/12/16 03:42:44;;;;;;;37.20;12.43;;;;;;;1.46;100.00;97045.56;4990502;28;20119;-76
2021/12/16 03:48:24;;;;;;;41.05;12.05;;;;;;;1.48;100.00;97054.00;4960299;28;20109;-77
2021/12/16 03:50:50;;;;;;;46.08;13.52;;;;;;;1.42;100.00;97062.44;4992515;28;20038;-76
2021/12/16 03:53:17;;;;;;;37.42;12.32;;;;;;;1.53;100.00;97051.66;5007759;28;20496;-77
2021/12/16 03:55:45;;;;;;;48.00;13.05;;;;;;;1.64;100.00;97052.22;5007722;28;20419;-77
2021/12/16 03:58:12;;;;;;;41.38;13.43;;;;;;;1.83;100.00;97067.34;5015163;28;20041;-76
2021/12/16 04:00:44;;;;;;;40.17;12.68;;;;;;;1.71;100.00;97063.53;4988756;28;20125;-76
2021/12/16 04:03:11;;;;;;;39.17;12.23;;;;;;;1.61;100.00;97070.75;4998012;28;20038;-76
2021/12/16 04:05:37;;;;;;;44.78;13.13;;;;;;;1.74;100.00;97068.41;4999420;28;20042;-77
2021/12/16 04:08:04;;;;;;;40.90;11.98;;;;;;;1.55;100.00;97067.88;4998374;28;20517;-75
2021/12/16 04:10:35;;;;;;;42.50;13.80;;;;;;;1.55;100.00;97075.66;4997456;28;20053;-75
2021/12/16 04:13:05;;;;;;;46.50;13.15;;;;;;;1.44;100.00;97072.66;5006861;28;20067;-75
2021/12/16 04:15:31;;;;;;;48.83;13.60;;;;;;;1.46;100.00;97075.88;5008016;28;20057;-76
2021/12/16 04:17:57;;;;;;;50.08;14.35;;;;;;;1.51;100.00;97079.59;4997374;28;20046;-76
2021/12/16 04:20:23;;;;;;;49.28;15.15;;;;;;;1.50;100.00;97082.34;5008429;28;20659;-76
2021/12/16 04:22:49;;;;;;;51.83;14.70;;;;;;;1.48;100.00;97074.75;5005221;28;20048;-75
2021/12/16 04:25:19;;;;;;;58.78;16.83;;;;;;;1.44;100.00;97081.25;5001252;28;20047;-76
2021/12/16 04:27:47;;;;;;;56.38;15.85;;;;;;;1.45;100.00;97090.66;5001469;28;20042;-75
2021/12/16 04:30:15;;;;;;;52.97;14.85;;;;;;;1.47;100.00;97087.91;4994611;28;20046;-76
2021/12/16 04:32:41;;;;;;;56.65;16.30;;;;;;;1.58;100.00;97091.84;5011440;28;20046;-76
2021/12/16 04:35:07;;;;;;;59.53;18.40;;;;;;;1.52;100.00;97091.59;5010080;28;20053;-75
2021/12/16 04:37:34;;;;;;;52.60;15.23;;;;;;;1.53;100.00;97098.38;5010501;28;20041;-76
2021/12/16 04:40:02;;;;;;;42.97;13.57;;;;;;;1.55;100.00;97099.03;4994489;28;20048;-75
2021/12/16 04:42:28;;;;;;;42.95;13.63;;;;;;;1.54;100.00;97094.81;4993253;28;20041;-75
2021/12/16 04:44:54;;;;;;;42.13;14.45;;;;;;;1.53;100.00;97093.19;4992142;28;20041;-75
2021/12/16 04:47:19;;;;;;;35.85;13.27;;;;;;;1.56;100.00;97098.03;5006253;28;20122;-76
2021/12/16 04:49:45;;;;;;;37.33;13.77;;;;;;;1.53;100.00;97103.56;4993907;28;20068;-75
2021/12/16 04:52:14;;;;;;;40.72;14.07;;;;;;;1.54;100.00;97112.97;4997986;28;20069;-75
2021/12/16 04:54:39;;;;;;;41.40;13.18;;;;;;;1.53;100.00;97103.56;4999437;28;20046;-76
2021/12/16 04:57:06;;;;;;;36.72;13.73;;;;;;;1.63;100.00;97108.53;5010873;28;20052;-76
2021/12/16 04:59:33;;;;;;;34.92;13.43;;;;;;;1.46;100.00;97107.03;5011700;28;20042;-76
2021/12/16 05:02:08;;;;;;;32.75;12.57;;;;;;;1.48;100.00;97116.25;4992953;28;20124;-76
2021/12/16 05:04:34;;;;;;;33.40;12.30;;;;;;;1.46;100.00;97122.59;5000203;28;20500;-76
2021/12/16 05:07:00;;;;;;;33.33;11.88;;;;;;;1.52;100.00;97122.72;5004200;28;20041;-75
2021/12/16 05:12:20;;;;;;;32.10;12.48;;;;;;;1.46;100.00;97128.56;4997131;28;20046;-76
2021/12/16 05:14:47;;;;;;;33.33;12.38;;;;;;;1.43;100.00;97125.53;4985147;28;20050;-75
2021/12/16 05:17:27;;;;;;;34.03;12.60;;;;;;;1.49;100.00;97138.59;5003749;28;20046;-76
2021/12/16 05:19:55;;;;;;;33.28;11.60;;;;;;;1.54;100.00;97136.31;4992996;28;20065;-75
2021/12/16 05:25:14;;;;;;;32.97;11.77;;;;;;;1.48;100.00;97142.19;5010122;28;20053;-76
2021/12/16 05:27:39;;;;;;;31.50;11.20;;;;;;;1.46;100.00;97133.75;5006551;28;20045;-76
2021/12/16 05:30:05;;;;;;;30.60;11.30;;;;;;;1.45;100.00;97132.19;5010171;28;20034;-76
2021/12/16 05:32:31;;;;;;;27.70;10.15;;;;;;;1.45;100.00;97145.16;4991399;28;20081;-75
2021/12/16 05:34:57;;;;;;;24.15;9.07;;;;;;;1.58;100.00;97146.34;4991092;28;20500;-76
2021/12/16 05:37:22;;;;;;;23.27;8.75;;;;;;;1.55;100.00;97148.31;4973977;28;20045;-75
2021/12/16 05:39:48;;;;;;;30.38;9.45;;;;;;;1.51;100.00;97151.44;4991392;28;20053;-76
2021/12/16 05:42:14;;;;;;;20.48;8.25;;;;;;;1.50;100.00;97152.41;5007493;28;20056;-76
2021/12/16 05:44:39;;;;;;;21.75;8.68;;;;;;;1.49;100.00;97148.19;5010352;28;20042;-76
2021/12/16 05:47:05;;;;;;;21.70;7.95;;;;;;;1.41;100.00;97156.84;5009636;28;20041;-75
2021/12/16 05:49:31;;;;;;;25.40;8.75;;;;;;;1.37;100.00;97155.56;5010321;28;20042;-75
2021/12/16 05:51:56;;;;;;;20.88;8.05;;;;;;;1.35;100.00;97167.88;5010125;28;20052;-76
2021/12/16 05:54:22;;;;;;;21.35;7.72;;;;;;;1.42;100.00;97163.63;5010141;28;20073;-76
2021/12/16 05:56:48;;;;;;;20.77;8.38;;;;;;;1.40;100.00;97159.59;4983961;28;20081;-76
2021/12/16 05:59:17;;;;;;;24.92;8.70;;;;;;;1.46;100.00;97169.28;5007254;28;20070;-76
2021/12/16 06:01:46;;;;;;;20.70;8.10;;;;;;;1.49;100.00;97185.31;5010131;28;20041;-76
2021/12/16 06:04:13;;;;;;;23.35;8.30;;;;;;;1.47;100.00;97182.09;5001680;28;20037;-76
2021/12/16 06:06:39;;;;;;;21.83;8.63;;;;;;;1.45;100.00;97184.06;5009335;28;20065;-76
2021/12/16 06:09:07;;;;;;;21.00;8.50;;;;;;;1.44;100.00;97182.44;5005773;28;20053;-75
2021/12/16 06:11:34;;;;;;;21.90;8.38;;;;;;;1.43;100.00;97180.81;5009042;28;20053;-76
2021/12/16 06:27:50;;;;;;;22.17;8.15;;;;;;;1.33;100.00;97193.19;5001442;28;20034;-76
2021/12/16 06:30:20;;;;;;;20.35;7.65;;;;;;;1.33;100.00;97200.97;5003772;28;20046;-75
2021/12/16 06:32:45;;;;;;;19.45;7.78;;;;;;;1.37;100.00;97197.06;4989714;28;20042;-76
2021/12/16 06:35:12;;;;;;;21.15;8.52;;;;;;;1.29;100.00;97194.50;4994005;28;20052;-76
2021/12/16 06:37:38;;;;;;;20.38;8.40;;;;;;;1.31;100.00;97208.13;4990379;28;20108;-76
2021/12/16 06:40:06;;;;;;;24.58;8.88;;;;;;;1.34;100.00;97202.59;4990350;28;20393;-75
2021/12/16 06:42:35;;;;;;;20.17;7.25;;;;;;;1.36;100.00;97208.41;4990107;28;20049;-76
2021/12/16 06:45:07;;;;;;;22.23;7.75;;;;;;;1.38;100.00;97209.06;5008567;28;20408;-76
2021/12/16 06:47:43;;;;;;;21.85;8.35;;;;;;;1.39;100.00;97200.28;5000003;28;20053;-76
2021/12/16 06:50:13;;;;;;;18.75;7.43;;;;;;;1.44;100.00;97208.38;5008375;28;20053;-76
2021/12/16 06:52:45;;;;;;;25.58;8.50;;;;;;;1.38;100.00;97209.06;4989844;28;20046;-75
2021/12/16 06:55:14;;;;;;;20.00;7.82;;;;;;;1.42;100.00;97212.91;4974763;28;20100;-76
2021/12/16 06:57:44;;;;;;;21.77;7.88;;;;;;;1.42;100.00;97209.53;4989961;28;20038;-75
2021/12/16 07:00:22;;;;;;;21.48;7.75;;;;;;;1.35;100.00;97211.97;5000486;28;20053;-75
2021/12/16 07:03:02;;;;;;;21.92;7.53;;;;;;;1.60;100.00;97217.06;4997831;28;20034;-77
2021/12/16 07:05:33;;;;;;;19.17;7.47;;;;;;;1.55;100.00;97214.97;5005975;28;20093;-76
2021/12/16 07:08:02;;;;;;;20.40;7.38;;;;;;;1.52;100.00;97213.53;4998300;28;20075;-76
2021/12/16 07:10:31;;;;;;;24.10;7.50;;;;;;;1.48;100.00;97224.41;4991063;28;20068;-76
2021/12/16 07:12:58;;;;;;;23.33;9.13;;;;;;;1.35;100.00;97230.13;4989564;28;20037;-76
2021/12/16 07:15:29;;;;;;;28.42;9.25;;;;;;;1.55;100.00;97233.97;5005066;28;20054;-76
2021/12/16 07:17:55;;;;;;;21.92;8.75;;;;;;;1.39;100.00;97221.03;4994992;28;20046;-74
2021/12/16 07:20:26;;;;;;;19.27;7.22;;;;;;;1.62;100.00;97225.47;4998281;28;20049;-76
2021/12/16 07:22:51;;;;;;;23.08;8.00;;;;;;;1.62;100.00;97230.66;5007655;28;20042;-76
2021/12/16 07:25:17;;;;;;;20.40;7.68;;;;;;;1.68;100.00;97235.19;4989056;28;20049;-76
2021/12/16 07:27:44;;;;;;;20.38;7.82;;;;;;;1.75;100.00;97230.91;5001272;28;20121;-76
2021/12/16 07:30:13;;;;;;;24.00;8.07;;;;;;;1.81;100.00;97235.44;5006985;28;20057;-75
2021/12/16 07:32:39;;;;;;;21.38;8.32;;;;;;;1.83;100.00;97228.28;5008060;28;20042;-75
2021/12/16 07:35:08;;;;;;;36.58;11.30;;;;;;;1.73;100.00;97225.91;4974577;28;20057;-75
2021/12/16 07:37:34;;;;;;;25.63;8.57;;;;;;;1.72;100.00;97231.25;4980687;28;20049;-75
2021/12/16 07:40:06;;;;;;;23.08;8.05;;;;;;;1.65;100.00;97235.53;5004105;28;20049;-74
2021/12/16 07:42:42;;;;;;;21.58;8.43;;;;;;;1.68;100.00;97241.19;5007269;28;20041;-75
2021/12/16 07:45:09;;;;;;;23.70;8.57;;;;;;;1.75;100.00;97230.91;5004523;28;20046;-73
2021/12/16 07:47:34;;;;;;;22.23;7.90;;;;;;;1.75;100.00;97238.72;4998492;28;20045;-74
2021/12/16 07:50:00;;;;;;;23.52;8.30;;;;;;;1.77;100.00;97228.16;5001490;28;20052;-76
2021/12/16 07:52:26;;;;;;;27.02;9.35;;;;;;;1.75;100.00;97225.72;4987532;28;20510;-75
2021/12/16 07:54:51;;;;;;;24.52;7.97;;;;;;;1.73;100.00;97228.50;5002036;28;20039;-75
2021/12/16 07:57:17;;;;;;;26.00;8.85;;;;;;;1.68;100.00;97224.78;5003973;28;20046;-76
2021/12/16 07:59:42;;;;;;;32.40;8.93;;;;;;;1.73;100.00;97238.88;5005788;28;20042;-76
2021/12/16 08:02:11;;;;;;;25.08;8.40;;;;;;;1.79;100.00;97237.38;4998216;28;20038;-76
2021/12/16 08:04:42;;;;;;;23.35;8.07;;;;;;;1.71;100.00;97240.03;4995683;28;20033;-75
2021/12/16 08:07:10;;;;;;;21.90;8.40;;;;;;;1.79;100.00;97241.78;5005620;28;20514;-73
2021/12/16 08:09:40;;;;;;;23.48;8.35;;;;;;;1.63;100.00;97246.06;4988839;28;20112;-75
2021/12/16 08:12:08;;;;;;;21.13;8.23;;;;;;;1.61;100.00;97257.59;5006994;28;20678;-73
2021/12/16 08:14:33;;;;;;;25.77;10.38;;;;;;;1.55;100.00;97252.13;5003048;28;20053;-74
2021/12/16 08:16:59;;;;;;;29.98;11.02;;;;;;;1.70;100.00;97259.19;5003510;28;20049;-75
2021/12/16 08:19:24;;;;;;;25.10;9.35;;;;;;;1.70;100.00;97259.19;5004843;28;20511;-75
2021/12/16 08:21:50;;;;;;;24.38;7.97;;;;;;;1.64;100.00;97265.03;4996587;28;20034;-75
2021/12/16 08:24:17;;;;;;;24.20;8.52;;;;;;;1.66;100.00;97260.50;4988476;28;20119;-74
2021/12/16 08:26:47;;;;;;;18.02;7.75;;;;;;;2.05;100.00;97268.25;5006426;28;20407;-74
2021/12/16 08:29:13;;;;;;;18.65;7.43;;;;;;;2.17;100.00;97268.66;5000559;28;20865;-75
2021/12/16 08:31:39;;;;;;;20.50;7.22;;;;;;;2.15;100.00;97268.00;4986018;28;20041;-75
2021/12/16 08:34:05;;;;;;;19.50;7.57;;;;;;;2.16;100.00;97280.03;5003073;28;20107;-74
2021/12/16 08:36:32;;;;;;;17.23;7.30;;;;;;;2.25;100.00;97276.38;4996103;28;20065;-76
2021/12/16 08:38:58;;;;;;;20.00;7.40;;;;;;;2.29;100.00;97273.47;4994233;28;20034;-76
2021/12/16 08:41:31;;;;;;;21.67;7.63;;;;;;;2.25;100.00;97278.97;5007931;28;20076;-77
2021/12/16 08:43:57;;;;;;;14.98;6.15;;;;;;;2.22;100.00;97263.75;5001630;28;20049;-77
2021/12/16 08:46:25;;;;;;;21.95;7.20;;;;;;;2.19;100.00;97269.28;4990562;28;20050;-77
2021/12/16 08:48:51;;;;;;;17.55;7.40;;;;;;;2.25;100.00;97273.00;5000135;28;20039;-76
2021/12/16 08:51:21;;;;;;;19.98;7.47;;;;;;;2.29;100.00;97278.66;4995344;28;20499;-76
2021/12/16 08:53:49;;;;;;;14.77;6.75;;;;;;;2.31;100.00;97276.69;5001925;28;20080;-75
2021/12/16 08:56:14;;;;;;;17.95;6.82;;;;;;;2.25;100.00;97284.19;5000972;28;20498;-76
2021/12/16 08:58:40;;;;;;;16.73;6.55;;;;;;;2.11;100.00;97277.13;5001725;28;20042;-76
2021/12/16 09:01:17;;;;;;;23.30;7.35;;;;;;;2.27;100.00;97296.19;4997717;28;20046;-78
2021/12/16 09:03:43;;;;;;;18.88;7.57;;;;;;;2.28;100.00;97287.44;5001247;28;20045;-76
2021/12/16 09:06:09;;;;;;;16.30;7.05;;;;;;;2.33;100.00;97285.94;4999436;28;20062;-78
2021/12/16 09:08:35;;;;;;;19.30;6.18;;;;;;;2.34;100.00;97291.94;5000128;28;20695;-77
2021/12/16 09:11:05;;;;;;;14.82;6.38;;;;;;;2.31;100.00;97294.88;5004266;28;20046;-76
2021/12/16 09:13:32;;;;;;;16.25;6.05;;;;;;;2.27;100.00;97291.00;5005331;28;20041;-78
2021/12/16 09:16:01;;;;;;;14.60;6.40;;;;;;;2.28;100.00;97295.22;5003768;28;20121;-78
2021/12/16 09:18:32;;;;;;;16.75;6.30;;;;;;;2.35;100.00;97288.34;5002487;28;20507;-77
2021/12/16 09:21:00;;;;;;;14.85;6.57;;;;;;;2.24;100.00;97298.16;5005363;28;20085;-77
2021/12/16 09:23:26;;;;;;;20.17;9.55;;;;;;;2.20;100.00;97296.09;5001659;28;20065;-77
2021/12/16 09:25:52;;;;;;;11.13;5.13;;;;;;;2.40;100.00;97296.44;5004322;28;20100;-78
2021/12/16 09:28:20;;;;;;;13.30;4.85;;;;;;;2.40;100.00;97306.84;5000662;28;20046;-77
2021/12/16 09:30:46;;;;;;;12.57;5.47;;;;;;;2.42;100.00;97307.47;5001070;28;20038;-77
2021/12/16 09:33:15;;;;;;;10.27;4.95;;;;;;;2.42;100.00;97307.47;5001131;28;20046;-78
2021/12/16 09:35:42;;;;;;;10.32;4.75;;;;;;;2.33;100.00;97311.09;5006911;28;20052;-77
2021/12/16 09:38:10;;;;;;;14.45;5.70;;;;;;;2.24;100.00;97318.13;5000866;28;20500;-77
2021/12/16 09:40:44;;;;;;;12.45;5.53;;;;;;;2.38;100.00;97312.19;4989217;28;20038;-78
2021/12/16 09:43:10;;;;;;;9.85;4.80;;;;;;;2.59;100.00;97321.97;5007178;28;20042;-77
2021/12/16 09:45:35;;;;;;;10.38;4.53;;;;;;;2.75;100.00;97315.03;5002395;28;20407;-76
2021/12/16 09:48:01;;;;;;;12.15;4.60;;;;;;;2.76;100.00;97311.44;5003416;28;20034;-77
2021/12/16 09:50:30;;;;;;;7.80;3.78;;;;;;;2.73;100.00;97311.78;4997397;28;20113;-77
2021/12/16 09:52:57;;;;;;;9.00;4.45;;;;;;;2.73;100.00;97306.56;5001354;28;20039;-77
2021/12/16 09:55:23;;;;;;;12.65;5.30;;;;;;;2.78;100.00;97309.47;4995172;28;20042;-76
2021/12/16 09:57:50;;;;;;;9.30;3.83;;;;;;;2.73;100.00;97301.38;4997534;28;20093;-77
2021/12/16 10:00:27;;;;;;;8.80;4.03;;;;;;;2.71;100.00;97308.56;5001227;28;20042;-77
2021/12/16 10:02:54;;;;;;;8.98;4.13;;;;;;;2.73;100.00;97306.56;4980976;28;20042;-76
2021/12/16 10:05:20;;;;;;;9.60;4.75;;;;;;;2.82;100.00;97310.75;5006349;28;20572;-77
2021/12/16 10:07:46;;;;;;;11.02;4.40;;;;;;;2.87;100.00;97308.41;5003101;28;20519;-76
2021/12/16 10:10:16;;;;;;;11.77;4.88;;;;;;;2.77;100.00;97318.25;5015557;28;20049;-77
2021/12/16 10:12:45;;;;;;;9.88;4.57;;;;;;;2.78;100.00;97320.66;4990682;28;20527;-75
2021/12/16 10:18:16;;;;;;;8.35;3.92;;;;;;;2.88;100.00;97310.03;5005816;28;20045;-78
2021/12/16 10:20:48;;;;;;;8.40;3.78;;;;;;;2.98;100.00;97309.00;4997659;28;20496;-77
2021/12/16 10:23:19;;;;;;;7.22;3.33;;;;;;;3.02;100.00;97305.06;5004709;28;20052;-77
2021/12/16 10:25:56;;;;;;;7.43;3.40;;;;;;;2.91;100.00;97301.88;4990295;28;20060;-77
2021/12/16 10:28:26;;;;;;;8.05;3.85;;;;;;;3.04;100.00;97297.88;4997869;28;20049;-78
2021/12/16 10:31:03;;;;;;;10.43;3.50;;;;;;;3.22;100.00;97300.94;5005527;28;20616;-77
2021/12/16 10:33:40;;;;;;;5.40;3.13;;;;;;;3.27;100.00;97298.59;5006541;28;20049;-77
2021/12/16 10:36:17;;;;;;;7.57;3.55;;;;;;;3.37;100.00;97294.94;4990488;28;20093;-77
2021/12/16 10:38:42;;;;;;;7.97;4.15;;;;;;;3.45;100.00;97289.66;4990054;28;20042;-77
2021/12/16 10:41:11;;;;;;;6.57;3.30;;;;;;;3.72;97.95;97283.00;4986676;28;20069;-76
2021/12/16 10:43:43;;;;;;;7.10;3.55;;;;;;;4.97;94.89;97273.16;4995188;28;20408;-77
2021/12/16 10:46:15;;;;;;;7.53;3.65;;;;;;;5.92;90.10;97277.06;4985165;28;20065;-77
2021/12/16 10:48:50;;;;;;;6.20;3.28;;;;;;;6.46;86.30;97276.22;4992056;28;20066;-78
2021/12/16 10:51:18;;;;;;;8.52;4.07;;;;;;;7.35;85.91;97278.63;4989044;28;20045;-77
2021/12/16 10:53:49;;;;;;;7.85;3.67;;;;;;;5.87;87.38;97270.59;5005586;28;20061;-77
2021/12/16 10:56:17;;;;;;;6.13;3.30;;;;;;;5.27;91.62;97267.75;5006459;28;20129;-77
2021/12/16 10:58:54;;;;;;;5.95;3.13;;;;;;;4.92;90.45;97259.88;5000460;28;20042;-78
2021/12/16 11:01:41;;;;;;;6.32;3.15;;;;;;;5.73;88.32;97261.94;4997889;28;20042;-76
2021/12/16 11:04:27;;;;;;;7.22;3.47;;;;;;;6.05;89.84;97264.88;5001436;28;20042;-78
2021/12/16 11:07:00;;;;;;;6.03;2.88;;;;;;;5.70;84.28;97267.56;4998499;28;20038;-78
2021/12/16 11:09:50;;;;;;;4.90;2.70;;;;;;;5.33;88.58;97274.78;5006427;28;20503;-77
2021/12/16 11:12:18;;;;;;;4.25;2.40;;;;;;;5.03;88.29;97261.16;5002023;28;20038;-78
2021/12/16 11:15:06;;;;;;;5.10;2.47;;;;;;;4.60;90.90;97262.03;4991501;28;20065;-78
2021/12/16 11:17:40;;;;;;;5.18;2.65;;;;;;;4.78;94.76;97268.59;4990179;28;20065;-78
2021/12/16 11:20:35;;;;;;;5.20;2.53;;;;;;;5.03;87.62;97266.38;4982977;28;20400;-78
2021/12/16 11:23:03;;;;;;;4.85;2.83;;;;;;;4.99;91.72;97265.13;5004852;28;20577;-80
2021/12/16 11:25:40;;;;;;;7.28;3.80;;;;;;;4.74;92.41;97254.31;5007436;28;20049;-79
2021/12/16 11:28:14;;;;;;;4.82;2.55;;;;;;;4.28;91.68;97258.94;5005378;28;20559;-78
2021/12/16 11:30:45;;;;;;;5.25;2.67;;;;;;;4.26;94.59;97260.91;5006747;28;20072;-79
2021/12/16 11:33:26;;;;;;;5.60;2.80;;;;;;;4.37;92.88;97258.81;5010665;28;20649;-79
2021/12/16 11:36:07;;;;;;;5.10;3.28;;;;;;;4.63;92.00;97272.09;4995463;28;20466;-79
2021/12/16 11:38:40;;;;;;;5.05;3.00;;;;;;;4.48;92.55;97273.94;4992041;28;20057;-78
2021/12/16 11:41:17;;;;;;;4.95;2.63;;;;;;;4.64;90.49;97263.28;5006478;28;20038;-79
2021/12/16 11:43:55;;;;;;;6.13;2.80;;;;;;;4.46;91.63;97275.94;4982926;28;20052;-79
2021/12/16 11:46:36;;;;;;;5.18;2.78;;;;;;;4.38;91.40;97273.47;4988853;28;20442;-78
2021/12/16 11:49:15;;;;;;;6.18;2.60;;;;;;;4.10;93.72;97266.38;5003018;28;20042;-79
2021/12/16 11:51:46;;;;;;;4.32;2.50;;;;;;;4.30;92.50;97271.78;5005730;28;20435;-79
2021/12/16 11:54:14;;;;;;;4.18;2.40;;;;;;;3.91;92.80;97263.38;5006447;28;20046;-79
2021/12/16 11:57:09;;;;;;;4.95;2.63;;;;;;;3.86;100.00;97270.91;5002909;28;20046;-79
2021/12/16 11:59:42;;;;;;;4.72;2.60;;;;;;;3.74;95.93;97277.59;4990327;28;20732;-77
2021/12/16 12:02:41;;;;;;;5.03;2.80;;;;;;;4.06;93.23;97270.34;4997737;28;20049;-78
2021/12/16 12:05:23;;;;;;;6.43;2.88;;;;;;;4.19;93.98;97270.47;4998307;28;20054;-79
2021/12/16 12:08:20;;;;;;;5.95;2.92;;;;;;;4.43;92.34;97284.16;4993990;28;20041;-79
2021/12/16 12:10:59;;;;;;;5.13;2.88;;;;;;;4.42;90.51;97280.72;4992254;28;20057;-79
2021/12/16 12:13:28;;;;;;;5.03;2.75;;;;;;;4.21;89.43;97278.94;5002404;28;20049;-79
2021/12/16 12:16:08;;;;;;;4.50;2.70;;;;;;;4.20;92.49;97272.09;4990184;28;20052;-79
2021/12/16 12:18:39;;;;;;;5.55;2.60;;;;;;;4.13;93.09;97276.44;4991708;28;20042;-78
2021/12/16 12:21:26;;;;;;;5.70;2.45;;;;;;;4.27;91.33;97272.97;5009785;28;20053;-79
2021/12/16 12:24:00;;;;;;;3.63;2.17;;;;;;;4.25;91.66;97277.56;5003508;28;20030;-78
2021/12/16 12:26:28;;;;;;;3.60;2.20;;;;;;;4.31;91.39;97279.44;5010400;28;20064;-80
2021/12/16 12:29:08;;;;;;;4.57;2.20;;;;;;;4.27;94.71;97278.19;4998655;28;21089;-79
2021/12/16 12:31:39;;;;;;;4.32;2.55;;;;;;;4.39;93.90;97275.06;5010453;28;20077;-79
2021/12/16 12:34:05;;;;;;;4.82;2.72;;;;;;;4.39;92.09;97275.06;5016319;28;20046;-79
2021/12/16 12:36:31;;;;;;;4.35;2.65;;;;;;;4.34;91.85;97279.03;4994897;28;20033;-80
2021/12/16 12:38:57;;;;;;;4.28;2.30;;;;;;;4.33;91.93;97282.63;5002134;28;20049;-80
2021/12/16 12:41:23;;;;;;;6.35;2.60;;;;;;;4.29;90.03;97284.00;5013096;28;20073;-79
2021/12/16 12:43:51;;;;;;;4.70;2.55;;;;;;;3.95;92.21;97269.84;5008743;28;20045;-80
2021/12/16 12:46:18;;;;;;;4.25;2.25;;;;;;;3.95;97.83;97269.84;5006516;28;20061;-81
2021/12/16 12:48:44;;;;;;;4.25;2.40;;;;;;;4.29;93.13;97270.97;5012158;28;20057;-79
2021/12/16 12:51:10;;;;;;;5.28;2.67;;;;;;;4.29;94.32;97273.56;5011721;28;20108;-80
2021/12/16 12:53:52;;;;;;;5.53;2.78;;;;;;;4.25;90.59;97269.75;5013045;28;20061;-80
2021/12/16 12:56:29;;;;;;;4.47;2.53;;;;;;;4.02;92.74;97275.09;4991270;28;20041;-80
2021/12/16 12:59:11;;;;;;;5.30;2.55;;;;;;;3.94;97.01;97268.22;4998017;28;20068;-80
2021/12/16 13:01:48;;;;;;;4.65;2.30;;;;;;;4.20;95.15;97261.66;5020910;28;20511;-79
2021/12/16 13:04:16;;;;;;;5.38;2.65;;;;;;;4.20;93.72;97264.28;5007818;28;20046;-79
2021/12/16 13:06:53;;;;;;;3.97;2.30;;;;;;;4.18;94.73;97262.84;5016141;28;20045;-81
2021/12/16 13:09:23;;;;;;;4.45;2.40;;;;;;;4.02;97.06;97259.47;5016601;28;20046;-79
2021/12/16 13:11:49;;;;;;;3.80;2.10;;;;;;;4.11;94.74;97262.78;5017110;28;20563;-79
2021/12/16 13:14:23;;;;;;;4.53;2.45;;;;;;;3.99;94.57;97258.06;5016239;28;20061;-78
2021/12/16 13:17:17;;;;;;;4.55;2.45;;;;;;;3.79;97.98;97264.81;5015249;28;20038;-79
2021/12/16 13:28:04;;;;;;;5.10;2.40;;;;;;;4.04;95.14;97251.47;5008245;28;20057;-76
2021/12/16 13:30:37;;;;;;;3.60;2.13;;;;;;;4.05;94.55;97237.44;5008516;28;20500;-76
2021/12/16 13:33:20;;;;;;;4.38;2.40;;;;;;;4.01;95.68;97246.63;5008859;28;20057;-77
2021/12/16 13:35:49;;;;;;;5.00;2.15;;;;;;;4.06;94.20;97249.50;4987131;28;20045;-78
2021/12/16 13:38:18;;;;;;;4.47;2.00;;;;;;;3.84;97.93;97251.28;5005709;28;20058;-78
2021/12/16 13:40:44;;;;;;;5.05;2.20;;;;;;;3.71;96.95;97251.94;5005367;28;20050;-78
2021/12/16 13:43:23;;;;;;;3.28;1.90;;;;;;;3.89;96.79;97249.72;5004814;28;20793;-78
2021/12/16 13:46:15;;;;;;;4.22;2.10;;;;;;;3.79;97.52;97250.03;5007543;28;20037;-77
2021/12/16 13:58:05;;;;;;;4.60;1.98;;;;;;;3.95;96.80;97254.19;5009921;28;20065;-77
2021/12/16 14:03:10;;;;;;;6.63;2.40;;;;;;;3.82;98.14;97264.44;5004142;28;20061;-77
2021/12/16 14:05:54;;;;;;;4.68;2.35;;;;;;;3.66;97.20;97272.47;5004660;28;20052;-76
2021/12/16 14:08:45;;;;;;;3.78;2.10;;;;;;;3.61;99.06;97267.81;4990668;28;20482;-76
2021/12/16 14:23:16;;;;;;;7.22;2.88;;;;;;;4.12;93.80;97243.53;5010774;28;20141;-76
2021/12/16 14:47:55;;;;;;;4.10;1.73;;;;;;;3.67;97.21;97285.31;5006249;28;20045;-76
2021/12/16 14:50:32;;;;;;;3.67;1.88;;;;;;;3.51;100.00;97283.72;5004677;28;20045;-76
2021/12/16 14:52:58;;;;;;;7.38;2.17;;;;;;;3.12;100.00;97295.19;5001303;28;20041;-77
2021/12/16 14:55:26;;;;;;;5.22;2.25;;;;;;;2.97;100.00;97302.16;4982458;28;20133;-76
2021/12/16 14:57:57;;;;;;;4.95;2.60;;;;;;;2.92;100.00;97308.69;5007524;28;20042;-76
2021/12/16 15:00:44;;;;;;;6.25;3.38;;;;;;;2.82;100.00;97321.13;4999383;28;20128;-76
2021/12/16 15:03:22;;;;;;;4.88;2.65;;;;;;;2.78;100.00;97314.66;5004933;28;20046;-76
2021/12/16 15:05:50;;;;;;;5.07;2.92;;;;;;;2.76;100.00;97311.44;4984545;28;20042;-75
2021/12/16 15:08:39;;;;;;;6.20;3.20;;;;;;;2.69;100.00;97315.72;5006629;28;20042;-76
2021/12/16 15:11:08;;;;;;;5.43;3.13;;;;;;;2.74;100.00;97313.41;5006744;28;20119;-75